createdAt,value
2018-07-26T00:01:49.235Z,2.90
2018-07-26T00:04:18.952Z,2.70
2018-07-26T00:06:48.708Z,2.20
2018-07-26T00:09:18.725Z,2.75
2018-07-26T00:11:48.605Z,2.72
2018-07-26T00:14:18.595Z,2.22
2018-07-26T00:16:48.729Z,2.33
2018-07-26T00:19:18.443Z,2.47
2018-07-26T00:21:48.192Z,2.50
2018-07-26T00:24:17.894Z,2.60
2018-07-26T00:26:48.152Z,3.02
2018-07-26T00:29:18.666Z,2.70
2018-07-26T00:31:48.804Z,2.52
2018-07-26T00:34:18.544Z,2.72
2018-07-26T00:36:48.244Z,2.42
2018-07-26T00:39:17.943Z,2.77
2018-07-26T00:41:48.133Z,3.02
2018-07-26T00:44:18.100Z,2.60
2018-07-26T00:46:47.847Z,2.70
2018-07-26T00:49:17.966Z,2.60
2018-07-26T00:51:47.680Z,2.67
2018-07-26T00:54:17.386Z,2.25
2018-07-26T00:56:47.067Z,2.62
2018-07-26T00:59:16.783Z,2.70
2018-07-26T01:01:49.367Z,2.47
2018-07-26T01:04:19.380Z,2.77
2018-07-26T01:06:49.129Z,2.92
2018-07-26T01:09:18.904Z,3.00
2018-07-26T01:11:48.691Z,2.52
2018-07-26T01:14:18.364Z,2.25
2018-07-26T01:16:48.108Z,2.20
2018-07-26T01:19:18.094Z,2.40
2018-07-26T01:21:47.806Z,2.70
2018-07-26T01:24:17.548Z,2.50
2018-07-26T01:26:47.273Z,2.37
2018-07-26T01:29:19.931Z,2.58
2018-07-26T01:31:53.603Z,2.45
2018-07-26T01:34:24.574Z,2.20
2018-07-26T01:36:55.351Z,2.22
2018-07-26T01:39:25.121Z,2.15
2018-07-26T01:41:54.788Z,2.87
2018-07-26T01:44:25.991Z,2.70
2018-07-26T01:46:55.681Z,2.90
2018-07-26T01:49:25.419Z,2.80
2018-07-26T01:51:55.136Z,2.47
2018-07-26T01:54:24.843Z,2.75
2018-07-26T01:56:54.579Z,2.90
2018-07-26T01:59:32.954Z,3.12
2018-07-26T02:02:02.662Z,2.70
2018-07-26T02:04:32.744Z,2.90
2018-07-26T02:07:02.464Z,2.63
2018-07-26T02:09:32.155Z,2.83
2018-07-26T02:12:01.873Z,3.00
2018-07-26T02:14:34.538Z,2.80
2018-07-26T02:17:04.708Z,2.70
2018-07-26T02:19:34.413Z,2.90
2018-07-26T02:22:04.136Z,2.55
2018-07-26T02:24:33.832Z,2.90
2018-07-26T02:27:03.560Z,2.90
2018-07-26T02:29:33.248Z,3.10
2018-07-26T02:32:02.945Z,2.47
2018-07-26T02:34:32.718Z,2.30
2018-07-26T02:37:02.424Z,2.60
2018-07-26T02:39:32.128Z,2.70
2018-07-26T02:42:01.794Z,2.72
2018-07-26T02:44:31.476Z,2.83
2018-07-26T02:47:01.209Z,3.10
2018-07-26T02:49:30.903Z,2.33
2018-07-26T02:52:00.615Z,2.80
2018-07-26T02:54:30.360Z,2.93
2018-07-26T02:57:00.088Z,2.60
2018-07-26T02:59:29.793Z,3.00
2018-07-26T03:01:59.573Z,3.07
2018-07-26T03:04:29.245Z,2.87
2018-07-26T03:06:58.916Z,2.97
2018-07-26T03:09:28.655Z,3.13
2018-07-26T03:11:58.412Z,3.80
2018-07-26T03:14:32.632Z,3.10
2018-07-26T03:17:02.322Z,2.97
2018-07-26T03:19:31.985Z,4.27
2018-07-26T03:22:02.452Z,2.80
2018-07-26T03:24:32.152Z,3.23
2018-07-26T03:27:01.877Z,2.90
2018-07-26T03:29:31.589Z,3.70
2018-07-26T03:32:01.354Z,3.27
2018-07-26T03:34:31.024Z,3.07
2018-07-26T03:37:00.753Z,3.40
2018-07-26T03:39:30.449Z,2.90
2018-07-26T03:42:00.206Z,2.97
2018-07-26T03:44:29.907Z,3.10
2018-07-26T03:47:00.008Z,2.93
2018-07-26T03:49:29.965Z,3.27
2018-07-26T03:51:59.664Z,2.70
2018-07-26T03:54:29.417Z,3.17
2018-07-26T03:56:59.116Z,2.97
2018-07-26T03:59:28.842Z,3.30
2018-07-26T04:01:58.557Z,2.70
2018-07-26T04:04:28.235Z,2.90
2018-07-26T04:06:58.158Z,3.50
2018-07-26T04:09:27.832Z,3.07
2018-07-26T04:11:57.559Z,3.03
2018-07-26T04:14:27.300Z,3.17
2018-07-26T04:16:56.987Z,3.73
2018-07-26T04:19:26.691Z,2.90
2018-07-26T04:21:56.356Z,3.33
2018-07-26T04:24:26.090Z,3.20
2018-07-26T04:26:56.172Z,3.33
2018-07-26T04:29:25.929Z,3.27
2018-07-26T04:31:55.702Z,3.10
2018-07-26T04:34:25.357Z,3.50
2018-07-26T04:36:55.125Z,3.07
2018-07-26T04:39:24.814Z,3.10
2018-07-26T04:41:54.500Z,3.40
2018-07-26T04:44:24.233Z,3.30
2018-07-26T04:46:53.949Z,3.30
2018-07-26T04:49:23.589Z,2.90
2018-07-26T04:51:53.319Z,2.83
2018-07-26T04:54:22.971Z,2.77
2018-07-26T04:56:52.687Z,3.20
2018-07-26T04:59:22.408Z,2.97
2018-07-26T05:01:52.095Z,2.50
2018-07-26T05:04:21.779Z,2.97
2018-07-26T05:06:51.515Z,3.03
2018-07-26T05:09:21.234Z,2.83
2018-07-26T05:11:50.907Z,3.40
2018-07-26T05:14:20.993Z,2.87
2018-07-26T05:16:50.686Z,3.10
2018-07-26T05:19:20.658Z,2.73
2018-07-26T05:21:50.356Z,2.97
2018-07-26T05:24:20.067Z,3.00
2018-07-26T05:26:49.752Z,3.23
2018-07-26T05:29:19.429Z,3.13
2018-07-26T05:31:49.087Z,3.00
2018-07-26T05:34:18.743Z,3.47
2018-07-26T05:36:48.427Z,3.30
2018-07-26T05:39:18.123Z,2.98
2018-07-26T05:41:47.799Z,3.10
2018-07-26T05:44:17.439Z,3.30
2018-07-26T05:46:47.177Z,3.22
2018-07-26T05:49:16.880Z,3.22
2018-07-26T05:51:46.600Z,3.12
2018-07-26T05:54:16.314Z,2.85
2018-07-26T05:56:45.972Z,2.60
2018-07-26T05:59:15.646Z,2.83
2018-07-26T06:01:45.400Z,3.10
2018-07-26T06:04:15.142Z,3.05
2018-07-26T06:06:44.803Z,2.70
2018-07-26T06:09:14.522Z,2.50
2018-07-26T06:11:44.213Z,2.75
2018-07-26T06:14:13.924Z,3.00
2018-07-26T06:16:43.626Z,2.95
2018-07-26T06:19:13.283Z,3.02
2018-07-26T06:21:42.955Z,2.95
2018-07-26T06:24:12.705Z,2.83
2018-07-26T06:26:42.441Z,2.87
2018-07-26T06:29:12.223Z,2.67
2018-07-26T06:31:41.910Z,2.65
2018-07-26T06:34:11.680Z,2.62
2018-07-26T06:36:41.384Z,2.35
2018-07-26T06:39:12.892Z,2.70
2018-07-26T06:41:43.715Z,2.72
2018-07-26T06:44:14.061Z,2.67
2018-07-26T06:46:43.784Z,2.40
2018-07-26T06:49:13.482Z,2.60
2018-07-26T06:51:43.248Z,2.70
2018-07-26T06:54:12.913Z,2.20
2018-07-26T06:56:42.954Z,2.25
2018-07-26T06:59:12.754Z,2.55
2018-07-26T07:01:42.795Z,2.65
2018-07-26T07:04:12.528Z,2.47
2018-07-26T07:06:42.251Z,2.40
2018-07-26T07:09:12.872Z,2.58
2018-07-26T07:11:42.852Z,2.47
2018-07-26T07:14:12.664Z,2.30
2018-07-26T07:16:42.441Z,2.22
2018-07-26T07:19:12.203Z,2.27
2018-07-26T07:21:41.917Z,2.50
2018-07-26T07:24:15.715Z,2.20
2018-07-26T07:26:45.809Z,2.50
2018-07-26T07:29:15.513Z,2.65
2018-07-26T07:31:45.267Z,2.42
2018-07-26T07:34:15.371Z,2.52
2018-07-26T07:36:45.104Z,2.30
2018-07-26T07:39:15.159Z,2.22
2018-07-26T07:41:45.245Z,2.72
2018-07-26T07:44:14.907Z,2.60
2018-07-26T07:46:44.675Z,2.15
2018-07-26T07:49:14.597Z,2.30
2018-07-26T07:51:44.339Z,2.60
2018-07-26T07:54:14.055Z,2.37
2018-07-26T07:56:44.196Z,2.40
2018-07-26T07:59:13.920Z,2.70
2018-07-26T08:01:43.637Z,2.55
2018-07-26T08:04:13.402Z,2.60
2018-07-26T08:06:43.142Z,2.45
2018-07-26T08:09:13.348Z,2.62
2018-07-26T08:11:43.037Z,2.40
2018-07-26T08:14:12.719Z,2.22
2018-07-26T08:16:42.925Z,2.50
2018-07-26T08:19:12.628Z,2.77
2018-07-26T08:21:42.624Z,2.40
2018-07-26T08:24:12.369Z,2.42
2018-07-26T08:26:42.321Z,2.22
2018-07-26T08:29:12.037Z,2.40
2018-07-26T08:31:42.401Z,2.20
2018-07-26T08:34:12.496Z,2.20
2018-07-26T08:36:42.855Z,2.55
2018-07-26T08:39:13.696Z,2.25
2018-07-26T08:41:43.679Z,2.27
2018-07-26T08:44:13.428Z,2.17
2018-07-26T08:46:43.112Z,2.12
2018-07-26T08:49:13.225Z,2.02
2018-07-26T08:51:42.911Z,2.42
2018-07-26T08:54:13.101Z,2.00
2018-07-26T08:56:42.879Z,2.08
2018-07-26T08:59:12.940Z,2.05
2018-07-26T09:01:42.723Z,1.80
2018-07-26T09:04:12.796Z,1.67
2018-07-26T09:06:42.522Z,1.70
2018-07-26T09:09:13.785Z,2.00
2018-07-26T09:11:43.520Z,1.90
2018-07-26T09:14:13.219Z,2.00
2018-07-26T09:16:42.999Z,1.98
2018-07-26T09:19:12.853Z,1.70
2018-07-26T09:21:43.081Z,1.95
2018-07-26T09:24:12.868Z,2.08
2018-07-26T09:26:42.901Z,2.15
2018-07-26T09:29:12.664Z,1.90
2018-07-26T09:31:42.680Z,2.17
2018-07-26T09:34:12.490Z,1.85
2018-07-26T09:36:42.943Z,2.02
2018-07-26T09:39:15.113Z,2.00
2018-07-26T09:41:44.992Z,2.45
2018-07-26T09:44:14.674Z,2.45
2018-07-26T09:46:44.899Z,2.27
2018-07-26T09:49:14.982Z,2.30
2018-07-26T09:51:44.719Z,2.05
2018-07-26T09:54:14.412Z,1.95
2018-07-26T09:56:44.166Z,2.12
2018-07-26T09:59:14.752Z,2.45
2018-07-26T10:01:44.516Z,2.58
2018-07-26T10:04:14.208Z,2.02
2018-07-26T10:06:43.918Z,2.37
2018-07-26T10:09:13.812Z,2.50
2018-07-26T10:11:43.825Z,1.87
2018-07-26T10:14:13.545Z,2.33
2018-07-26T10:16:43.280Z,2.47
2018-07-26T10:19:12.969Z,2.20
2018-07-26T10:21:42.717Z,2.08
2018-07-26T10:24:12.781Z,2.25
2018-07-26T10:26:42.902Z,2.20
2018-07-26T10:29:12.995Z,2.20
2018-07-26T10:31:42.735Z,2.15
2018-07-26T10:34:12.422Z,2.10
2018-07-26T10:36:42.165Z,2.20
2018-07-26T10:39:12.591Z,2.08
2018-07-26T10:41:42.328Z,2.22
2018-07-26T10:44:12.035Z,2.10
2018-07-26T10:46:42.223Z,2.10
2018-07-26T10:49:11.934Z,1.87
2018-07-26T10:51:41.652Z,1.92
2018-07-26T10:54:11.369Z,2.00
2018-07-26T10:56:41.048Z,2.20
2018-07-26T10:59:11.000Z,1.95
2018-07-26T11:01:40.745Z,1.75
2018-07-26T11:04:10.436Z,2.25
2018-07-26T11:06:40.207Z,1.87
2018-07-26T11:09:10.673Z,1.90
2018-07-26T11:11:40.648Z,2.12
2018-07-26T11:14:10.860Z,2.27
2018-07-26T11:16:40.655Z,1.75
2018-07-26T11:19:10.361Z,2.10
2018-07-26T11:21:40.104Z,1.82
2018-07-26T11:24:10.220Z,2.37
2018-07-26T11:26:40.294Z,2.27
2018-07-26T11:29:09.979Z,2.15
2018-07-26T11:31:39.651Z,2.20
2018-07-26T11:34:09.374Z,2.27
2018-07-26T11:36:39.059Z,2.27
2018-07-26T11:39:11.525Z,2.40
2018-07-26T11:41:41.710Z,2.20
2018-07-26T11:44:11.444Z,2.25
2018-07-26T11:46:41.144Z,2.58
2018-07-26T11:49:10.832Z,2.22
2018-07-26T11:51:40.895Z,2.35
2018-07-26T11:54:10.571Z,2.20
2018-07-26T11:56:40.303Z,2.15
2018-07-26T11:59:10.397Z,2.50
2018-07-26T12:01:40.172Z,2.37
2018-07-26T12:04:09.841Z,2.67
2018-07-26T12:06:39.517Z,2.50
2018-07-26T12:09:10.597Z,2.27
2018-07-26T12:11:40.777Z,2.30
2018-07-26T12:14:11.200Z,2.33
2018-07-26T12:16:40.921Z,2.50
2018-07-26T12:19:10.603Z,2.70
2018-07-26T12:21:40.705Z,2.10
2018-07-26T12:24:10.404Z,2.15
2018-07-26T12:26:40.170Z,2.33
2018-07-26T12:29:09.856Z,2.50
2018-07-26T12:31:39.543Z,2.40
2018-07-26T12:34:09.276Z,3.00
2018-07-26T12:36:38.956Z,2.60
2018-07-26T12:39:11.428Z,2.77
2018-07-26T12:41:41.116Z,2.42
2018-07-26T12:44:11.332Z,2.45
2018-07-26T12:46:41.007Z,2.45
2018-07-26T12:49:10.708Z,2.75
2018-07-26T12:51:40.443Z,2.65
2018-07-26T12:54:10.154Z,2.62
2018-07-26T12:56:39.804Z,2.37
2018-07-26T12:59:09.982Z,2.37
2018-07-26T13:01:39.699Z,2.60
2018-07-26T13:04:09.753Z,2.50
2018-07-26T13:06:39.436Z,2.45
2018-07-26T13:09:10.464Z,2.40
2018-07-26T13:11:40.155Z,2.62
2018-07-26T13:14:10.048Z,2.33
2018-07-26T13:16:39.756Z,2.40
2018-07-26T13:19:09.483Z,2.30
2018-07-26T13:21:39.223Z,2.37
2018-07-26T13:24:09.448Z,2.60
2018-07-26T13:26:39.180Z,2.60
2018-07-26T13:29:08.856Z,2.70
2018-07-26T13:31:38.563Z,2.65
2018-07-26T13:34:08.317Z,2.80
2018-07-26T13:36:38.032Z,2.40
2018-07-26T13:39:11.433Z,2.58
2018-07-26T13:41:41.533Z,2.83
2018-07-26T13:44:11.731Z,2.17
2018-07-26T13:46:42.154Z,2.52
2018-07-26T13:49:11.861Z,2.70
2018-07-26T13:51:41.597Z,2.90
2018-07-26T13:54:11.729Z,2.12
2018-07-26T13:56:41.528Z,2.30
2018-07-26T13:59:11.243Z,2.67
2018-07-26T14:01:41.368Z,1.92
2018-07-26T14:04:11.103Z,2.47
2018-07-26T14:06:40.798Z,2.42
2018-07-26T14:09:11.981Z,2.55
2018-07-26T14:11:42.460Z,2.35
2018-07-26T14:14:12.190Z,2.52
2018-07-26T14:16:41.888Z,2.45
2018-07-26T14:19:11.640Z,2.10
2018-07-26T14:21:41.360Z,2.27
2018-07-26T14:24:16.235Z,2.25
2018-07-26T14:26:45.971Z,2.40
2018-07-26T14:29:15.661Z,2.30
2018-07-26T14:31:45.414Z,2.58
2018-07-26T14:34:15.418Z,2.90
2018-07-26T14:36:45.796Z,2.45
2018-07-26T14:39:15.550Z,2.27
2018-07-26T14:41:45.303Z,2.27
2018-07-26T14:44:15.026Z,2.65
2018-07-26T14:46:44.723Z,2.20
2018-07-26T14:49:14.473Z,2.40
2018-07-26T14:51:44.567Z,2.45
2018-07-26T14:54:14.288Z,2.25
2018-07-26T14:56:43.984Z,2.60
2018-07-26T14:59:13.992Z,2.47
2018-07-26T15:01:43.747Z,2.42
2018-07-26T15:04:13.522Z,2.90
2018-07-26T15:06:43.209Z,3.08
2018-07-26T15:09:13.265Z,2.70
2018-07-26T15:11:42.981Z,2.83
2018-07-26T15:14:12.760Z,2.37
2018-07-26T15:16:42.454Z,2.65
2018-07-26T15:19:12.241Z,2.37
2018-07-26T15:21:41.924Z,2.20
2018-07-26T15:24:12.383Z,2.47
2018-07-26T15:26:42.329Z,2.80
2018-07-26T15:29:12.240Z,2.42
2018-07-26T15:31:41.945Z,2.83
2018-07-26T15:34:11.674Z,2.40
2018-07-26T15:36:41.401Z,2.40
2018-07-26T15:39:11.727Z,2.27
2018-07-26T15:41:44.024Z,2.55
2018-07-26T15:44:16.081Z,2.80
2018-07-26T15:46:45.808Z,2.20
2018-07-26T15:49:15.480Z,2.22
2018-07-26T15:51:45.224Z,2.30
2018-07-26T15:54:14.936Z,2.52
2018-07-26T15:56:44.654Z,2.17
2018-07-26T15:59:14.420Z,2.33
2018-07-26T16:01:44.130Z,2.40
2018-07-26T16:04:13.896Z,2.30
2018-07-26T16:06:43.627Z,2.17
2018-07-26T16:09:13.374Z,2.50
2018-07-26T16:11:43.141Z,2.42
2018-07-26T16:14:12.872Z,2.50
2018-07-26T16:16:42.623Z,2.12
2018-07-26T16:19:12.400Z,2.58
2018-07-26T16:21:42.124Z,2.22
2018-07-26T16:24:11.842Z,2.52
2018-07-26T16:26:41.959Z,2.40
2018-07-26T16:29:11.735Z,2.33
2018-07-26T16:31:41.984Z,2.83
2018-07-26T16:34:11.732Z,2.40
2018-07-26T16:36:41.510Z,2.52
2018-07-26T16:39:12.527Z,2.75
2018-07-26T16:41:42.305Z,2.40
2018-07-26T16:44:12.012Z,2.58
2018-07-26T16:46:41.752Z,2.85
2018-07-26T16:49:11.500Z,2.80
2018-07-26T16:51:41.186Z,2.22
2018-07-26T16:54:10.867Z,2.15
2018-07-26T16:56:40.613Z,2.50
2018-07-26T16:59:10.318Z,2.55
2018-07-26T17:01:39.993Z,2.50
2018-07-26T17:04:09.729Z,2.15
2018-07-26T17:06:39.715Z,2.62
2018-07-26T17:09:11.283Z,2.20
2018-07-26T17:11:41.249Z,2.50
2018-07-26T17:14:10.976Z,2.40
2018-07-26T17:16:40.824Z,2.20
2018-07-26T17:19:10.677Z,2.45
2018-07-26T17:21:40.409Z,2.62
2018-07-26T17:24:10.483Z,2.12
2018-07-26T17:26:40.196Z,2.33
2018-07-26T17:29:09.944Z,2.30
2018-07-26T17:31:39.624Z,2.22
2018-07-26T17:34:09.316Z,2.12
2018-07-26T17:36:39.013Z,2.30
2018-07-26T17:39:10.287Z,2.30
2018-07-26T17:41:40.260Z,2.17
2018-07-26T17:44:09.949Z,2.40
2018-07-26T17:46:39.661Z,2.17
2018-07-26T17:49:09.370Z,2.47
2018-07-26T17:51:39.410Z,2.20
2018-07-26T17:54:09.122Z,2.30
2018-07-26T17:56:38.841Z,2.42
2018-07-26T17:59:08.614Z,2.12
2018-07-26T18:01:38.332Z,2.08
2018-07-26T18:04:08.063Z,2.33
2018-07-26T18:06:37.764Z,2.30
2018-07-26T18:09:08.705Z,2.65
2018-07-26T18:11:38.481Z,2.30
2018-07-26T18:14:08.206Z,2.25
2018-07-26T18:16:37.896Z,2.75
2018-07-26T18:19:07.588Z,2.40
2018-07-26T18:21:37.310Z,2.65
2018-07-26T18:24:07.568Z,2.30
2018-07-26T18:26:37.318Z,2.83
2018-07-26T18:29:07.055Z,2.30
2018-07-26T18:31:36.825Z,2.67
2018-07-26T18:34:06.757Z,2.20
2018-07-26T18:36:36.465Z,2.20
2018-07-26T18:39:09.465Z,2.55
2018-07-26T18:41:39.159Z,2.58
2018-07-26T18:44:09.657Z,2.20
2018-07-26T18:46:39.679Z,2.47
2018-07-26T18:49:10.155Z,2.20
2018-07-26T18:51:39.859Z,2.70
2018-07-26T18:54:09.552Z,2.60
2018-07-26T18:56:39.284Z,2.42
2018-07-26T18:59:08.945Z,2.47
2018-07-26T19:01:38.671Z,2.70
2018-07-26T19:04:08.424Z,2.60
2018-07-26T19:06:38.137Z,2.62
2018-07-26T19:09:10.127Z,2.55
2018-07-26T19:11:40.482Z,2.60
2018-07-26T19:14:10.269Z,2.77
2018-07-26T19:16:39.951Z,2.92
2018-07-26T19:19:09.752Z,2.70
2018-07-26T19:21:39.573Z,2.92
2018-07-26T19:24:09.357Z,2.72
2018-07-26T19:26:39.119Z,2.60
2018-07-26T19:29:09.129Z,2.50
2018-07-26T19:31:39.049Z,2.50
2018-07-26T19:34:08.772Z,3.30
2018-07-26T19:36:38.466Z,2.47
2018-07-26T19:39:10.665Z,2.62
2018-07-26T19:41:41.052Z,2.92
2018-07-26T19:44:11.200Z,2.95
2018-07-26T19:46:41.733Z,2.50
2018-07-26T19:49:11.828Z,3.05
2018-07-26T19:51:41.549Z,3.25
2018-07-26T19:54:11.303Z,3.37
2018-07-26T19:56:41.011Z,2.80
2018-07-26T19:59:11.007Z,2.58
2018-07-26T20:01:41.118Z,2.67
2018-07-26T20:04:10.914Z,2.70
2018-07-26T20:06:40.597Z,2.50
2018-07-26T20:09:11.117Z,2.70
2018-07-26T20:11:40.856Z,2.45
2018-07-26T20:14:10.592Z,3.00
2018-07-26T20:16:41.108Z,2.60
2018-07-26T20:19:11.441Z,2.60
2018-07-26T20:21:41.146Z,2.20
2018-07-26T20:24:10.833Z,2.27
2018-07-26T20:26:40.934Z,2.72
2018-07-26T20:29:11.239Z,2.77
2018-07-26T20:31:41.076Z,2.45
2018-07-26T20:34:10.769Z,2.40
2018-07-26T20:36:40.499Z,2.80
2018-07-26T20:39:13.187Z,2.70
2018-07-26T20:41:43.069Z,2.37
2018-07-26T20:44:13.242Z,2.83
2018-07-26T20:46:42.982Z,2.60
2018-07-26T20:49:12.687Z,2.75
2018-07-26T20:51:42.429Z,2.80
2018-07-26T20:54:12.812Z,2.25
2018-07-26T20:56:42.545Z,2.50
2018-07-26T20:59:12.256Z,2.45
2018-07-26T21:01:41.974Z,2.62
2018-07-26T21:04:11.695Z,2.22
2018-07-26T21:06:41.437Z,2.52
2018-07-26T21:09:13.331Z,2.80
2018-07-26T21:11:43.943Z,2.30
2018-07-26T21:14:13.741Z,2.37
2018-07-26T21:16:43.983Z,2.87
2018-07-26T21:19:13.705Z,2.55
2018-07-26T21:21:43.543Z,2.60
2018-07-26T21:24:13.348Z,2.33
2018-07-26T21:26:43.430Z,2.80
2018-07-26T21:29:13.220Z,2.83
2018-07-26T21:31:43.017Z,2.50
2018-07-26T21:34:12.664Z,2.65
2018-07-26T21:36:42.720Z,2.65
2018-07-26T21:39:13.047Z,3.02
2018-07-26T21:41:43.155Z,3.00
2018-07-26T21:44:13.149Z,2.98
2018-07-26T21:46:43.209Z,2.30
2018-07-26T21:49:12.993Z,3.02
2018-07-26T21:51:42.700Z,3.15
2018-07-26T21:54:12.440Z,2.92
2018-07-26T21:56:42.173Z,2.65
2018-07-26T21:59:11.888Z,4.70
2018-07-26T22:01:41.653Z,3.33
2018-07-26T22:04:11.354Z,2.77
2018-07-26T22:06:41.121Z,3.30
2018-07-26T22:09:11.830Z,2.70
2018-07-26T22:11:41.604Z,3.02
2018-07-26T22:14:11.324Z,2.80
2018-07-26T22:16:41.021Z,3.10
2018-07-26T22:19:10.796Z,3.20
2018-07-26T22:21:40.559Z,3.08
2018-07-26T22:24:10.578Z,2.80
2018-07-26T22:26:40.265Z,2.90
2018-07-26T22:29:09.980Z,3.58
2018-07-26T22:31:39.750Z,2.70
2018-07-26T22:34:10.016Z,3.30
2018-07-26T22:36:39.776Z,3.12
2018-07-26T22:39:11.044Z,3.17
2018-07-26T22:41:41.104Z,3.50
2018-07-26T22:44:10.833Z,2.92
2018-07-26T22:46:40.529Z,2.83
2018-07-26T22:49:10.654Z,2.77
2018-07-26T22:51:40.357Z,3.08
2018-07-26T22:54:10.562Z,3.05
2018-07-26T22:56:40.591Z,3.55
2018-07-26T22:59:10.347Z,3.37
2018-07-26T23:01:40.091Z,3.27
2018-07-26T23:04:09.887Z,3.70
2018-07-26T23:06:39.610Z,3.33
2018-07-26T23:09:10.768Z,3.33
2018-07-26T23:11:40.754Z,3.15
2018-07-26T23:14:10.443Z,3.40
2018-07-26T23:16:40.496Z,3.27
2018-07-26T23:19:10.216Z,3.02
2018-07-26T23:21:39.974Z,3.92
2018-07-26T23:24:09.699Z,3.50
2018-07-26T23:26:39.510Z,3.60
2018-07-26T23:29:09.279Z,3.42
2018-07-26T23:31:38.954Z,3.30
2018-07-26T23:34:09.657Z,3.25
2018-07-26T23:36:39.378Z,3.67
2018-07-26T23:39:11.921Z,3.42
2018-07-26T23:41:41.735Z,3.60
2018-07-26T23:44:11.768Z,3.58
2018-07-26T23:46:41.506Z,3.45
2018-07-26T23:49:11.341Z,2.95
2018-07-26T23:51:41.047Z,3.10
2018-07-26T23:54:11.231Z,3.10
2018-07-26T23:56:40.916Z,3.37
2018-07-26T23:59:11.848Z,3.58
